Gazpromneft East — UBOF4 — position and weather

sailwx.info

Track history (hours):
 
Tides and Currents Weather Stations Pressure Air Temp Water Temp Dewpoint Dewpoint Depression Visibility Wind Speed Wind Dir Waves Ship Positions

Gazpromneft East

Last reported at 2016-Dec-03 04:33 UTC. Time now 2016-Dec-03 04:41 UTC.
Position N 59°53' E 030°14'.

Length 79 m; draft 3.9 m.

Type: Tanker. MMSI: 273335320.

Date/timePositionNaut miles runAvg speedWind from/ knotsBaromVisibWave heightAir tempDewpointWater temp
2016-Dec-03 04:33N 59°53' E 030°14'0 0.0
2016-Dec-03 03:33N 59°53' E 030°14'0 0.1
2016-Dec-03 02:33N 59°53' E 030°13'0 0.0
2016-Dec-03 01:34N 59°53' E 030°13'0 0.0
2016-Dec-03 00:33N 59°53' E 030°13'0 0.0
2016-Dec-02 23:34N 59°53' E 030°13'0 0.2
2016-Dec-02 22:34N 59°53' E 030°13'0 0.4
2016-Dec-02 21:34N 59°53' E 030°13'0 0.0
2016-Dec-02 20:34N 59°53' E 030°13'0 0.0
2016-Dec-02 19:34N 59°53' E 030°13'1 0.5
2016-Dec-02 18:32N 59°53' E 030°13'0 0.0
2016-Dec-02 17:32N 59°53' E 030°13'0 0.0
2016-Dec-02 16:32N 59°53' E 030°13'0 0.1
2016-Dec-02 15:32N 59°53' E 030°14'0 0.0
2016-Dec-02 14:32N 59°53' E 030°14'0 0.1
2016-Dec-02 13:32N 59°53' E 030°13'0 0.0
2016-Dec-02 12:28N 59°53' E 030°13'6 1.9
2016-Dec-02 09:12N 59°53' E 030°01'6 3.8
2016-Dec-02 07:32N 59°53' E 030°13'0 0.0
2016-Dec-02 06:32N 59°53' E 030°13'0 0.0
2016-Dec-02 05:32N 59°53' E 030°13'0 0.0
2016-Dec-02 04:32N 59°53' E 030°13'0 0.0
2016-Dec-02 03:32N 59°53' E 030°13'2 1.9
2016-Dec-02 02:33N 59°53' E 030°10'8 8.4
2016-Dec-02 01:33N 59°56' E 029°54'27 9.1
2016-Dec-01 22:33N 60°00' E 028°60'1211.9
2016-Dec-01 21:33N 59°54' E 028°39'1110.8
2016-Dec-01 20:33N 59°46' E 028°25'5 4.3
2016-Dec-01 19:23N 59°42' E 028°20'0 0.0
2016-Dec-01 18:26N 59°42' E 028°20'0 0.0
2016-Dec-01 17:11N 59°42' E 028°20'0 0.0
2016-Dec-01 16:26N 59°42' E 028°20'0 0.0
2016-Dec-01 15:29N 59°42' E 028°20'0 0.1
2016-Dec-01 14:29N 59°42' E 028°20'0 0.0
2016-Dec-01 13:29N 59°42' E 028°20'0 0.0
2016-Dec-01 12:32N 59°42' E 028°20'0 0.0
2016-Dec-01 11:32N 59°42' E 028°20'0 0.0
2016-Dec-01 10:32N 59°42' E 028°20'0 0.0
2016-Dec-01 09:32N 59°42' E 028°20'0 0.0
2016-Dec-01 08:20N 59°42' E 028°20'0 0.0
2016-Dec-01 07:32N 59°42' E 028°20'0 0.0
2016-Dec-01 06:32N 59°42' E 028°20'0 0.0
2016-Dec-01 05:23N 59°42' E 028°20'0 0.0
2016-Dec-01 04:20N 59°42' E 028°20'0 0.0
2016-Dec-01 03:26N 59°42' E 028°20'0 0.0
2016-Dec-01 02:26N 59°42' E 028°20'0 0.0
2016-Dec-01 01:29N 59°42' E 028°20'0 0.0
2016-Dec-01 00:29N 59°42' E 028°20'0 0.0
2016-Nov-30 23:29N 59°42' E 028°20'0 0.0
2016-Nov-30 22:32N 59°42' E 028°20'0 0.0
2016-Nov-30 21:32N 59°42' E 028°20'0 0.0
2016-Nov-30 20:32N 59°42' E 028°20'4 4.4
2016-Nov-30 19:33N 59°46' E 028°24'1010.1
2016-Nov-30 18:33N 59°54' E 028°35'2 1.8
2016-Nov-30 17:24N 59°54' E 028°39'0 0.0
2016-Nov-30 16:24N 59°54' E 028°39'0 0.0
2016-Nov-30 15:27N 59°54' E 028°39'0 0.0
2016-Nov-30 14:27N 59°54' E 028°39'0 0.0
2016-Nov-30 13:31N 59°54' E 028°39'0 0.0
2016-Nov-30 12:30N 59°54' E 028°39'7 6.9
2016-Nov-30 11:33N 59°58' E 028°51'2310.5
2016-Nov-30 09:19N 60°00' E 029°37'810.5
2016-Nov-30 08:33N 59°57' E 029°52'10 9.8
2016-Nov-30 07:33N 59°53' E 030°10'2 1.7
2016-Nov-30 06:33N 59°53' E 030°13'0 0.0
2016-Nov-30 05:33N 59°53' E 030°13'0 0.0
2016-Nov-30 04:33N 59°53' E 030°13'0 0.0
2016-Nov-30 03:33N 59°53' E 030°13'0 0.0
2016-Nov-30 02:33N 59°53' E 030°13'0 0.0
2016-Nov-30 01:33N 59°53' E 030°13'0 0.0
2016-Nov-30 00:33N 59°53' E 030°13'0 0.0
2016-Nov-29 23:33N 59°53' E 030°13'0 0.0
2016-Nov-29 22:33N 59°53' E 030°13'0 0.0
2016-Nov-29 21:33N 59°53' E 030°13'0 0.0
2016-Nov-29 20:33N 59°53' E 030°13'0 0.0
2016-Nov-29 19:33N 59°53' E 030°13'0 0.0
2016-Nov-29 18:33N 59°53' E 030°13'0 0.1
2016-Nov-29 17:33N 59°53' E 030°13'1 1.0
2016-Nov-29 16:33N 59°53' E 030°11'0 0.0
2016-Nov-29 15:33N 59°53' E 030°11'0 0.0
2016-Nov-29 14:33N 59°53' E 030°11'0 0.0
2016-Nov-29 13:33N 59°53' E 030°11'0 0.0
2016-Nov-29 12:30N 59°53' E 030°11'0 0.0
2016-Nov-29 11:33N 59°53' E 030°11'0 0.1
2016-Nov-29 10:33N 59°53' E 030°11'1 1.0
2016-Nov-29 09:31N 59°53' E 030°13'0 0.0
2016-Nov-29 08:31N 59°53' E 030°13'0 0.0
2016-Nov-29 07:31N 59°53' E 030°13'0 0.0
2016-Nov-29 06:31N 59°53' E 030°13'5 4.8
2016-Nov-29 05:33N 59°54' E 030°05'1010.1
2016-Nov-29 04:33N 59°59' E 029°46'1 0.7
2016-Nov-29 02:29N 59°59' E 029°44'0 0.0
2016-Nov-29 01:20N 59°59' E 029°44'0 0.0
2016-Nov-29 00:28N 59°59' E 029°44'0 0.0
2016-Nov-28 23:29N 59°59' E 029°44'0 0.0
2016-Nov-28 22:32N 59°59' E 029°44'0 0.0
2016-Nov-28 19:20N 59°59' E 029°44'0 0.0
2016-Nov-28 18:26N 59°59' E 029°44'0 0.0
2016-Nov-28 17:32N 59°59' E 029°44'2 0.2
2016-Nov-28 09:32N 59°57' E 029°44'6 6.5
2016-Nov-28 08:33N 59°56' E 029°56'8 7.9
2016-Nov-28 07:33N 59°53' E 030°11'1 1.2
2016-Nov-28 06:33N 59°53' E 030°13'0 0.0
2016-Nov-28 05:33N 59°53' E 030°13'0 0.0
2016-Nov-28 04:33N 59°53' E 030°13'0 0.0
2016-Nov-28 03:33N 59°53' E 030°13'0 0.0
2016-Nov-28 02:33N 59°53' E 030°13'0 0.0
2016-Nov-28 01:33N 59°53' E 030°13'0 0.0
2016-Nov-28 00:33N 59°53' E 030°13'0 0.0
2016-Nov-27 23:33N 59°53' E 030°13'1 0.9
2016-Nov-27 22:33N 59°52' E 030°12'0 0.0
2016-Nov-27 21:33N 59°52' E 030°12'0 0.0
2016-Nov-27 20:33N 59°52' E 030°12'0 0.0
2016-Nov-27 19:33N 59°52' E 030°12'0 0.0
2016-Nov-27 18:33N 59°52' E 030°12'0 0.0
2016-Nov-27 17:33N 59°52' E 030°12'0 0.0
2016-Nov-27 16:33N 59°52' E 030°12'0 0.0
2016-Nov-27 15:33N 59°52' E 030°12'8 7.7
2016-Nov-27 14:33N 59°56' E 029°58'6 0.9
2016-Nov-27 07:28N 59°56' E 029°46'0 0.0
2016-Nov-27 06:31N 59°56' E 029°46'3 0.4
2016-Nov-26 23:33N 59°56' E 029°41'3 3.1
2016-Nov-26 22:34N 59°59' E 029°44'10 9.9
2016-Nov-26 21:33N 59°55' E 030°02'5 4.6
2016-Nov-26 20:32N 59°53' E 030°11'0 0.0
2016-Nov-26 19:34N 59°53' E 030°11'0 0.0
2016-Nov-26 18:33N 59°53' E 030°11'0 0.0
2016-Nov-26 17:31N 59°53' E 030°11'0 0.0
2016-Nov-26 16:33N 59°53' E 030°11'0 0.0
2016-Nov-26 15:34N 59°53' E 030°11'1 1.2
2016-Nov-26 14:33N 59°53' E 030°13'0 0.2
2016-Nov-26 13:33N 59°53' E 030°13'0 0.0
2016-Nov-26 12:33N 59°53' E 030°13'0 0.0
2016-Nov-26 11:33N 59°53' E 030°13'0 0.0
2016-Nov-26 10:30N 59°53' E 030°13'0 0.0
2016-Nov-26 09:33N 59°53' E 030°13'0 0.0
2016-Nov-26 08:33N 59°53' E 030°13'0 0.0
2016-Nov-26 07:33N 59°53' E 030°13'0 0.0
2016-Nov-26 06:32N 59°53' E 030°13'0 0.0
2016-Nov-26 05:32N 59°53' E 030°13'0 0.0
2016-Nov-26 04:32N 59°53' E 030°13'0 0.0
2016-Nov-26 03:32N 59°53' E 030°13'0 0.0
2016-Nov-26 02:32N 59°53' E 030°13'0 0.0
2016-Nov-26 01:32N 59°53' E 030°13'0 0.5
2016-Nov-26 00:29N 59°53' E 030°14'0 0.1
2016-Nov-25 23:32N 59°53' E 030°14'0 0.0
2016-Nov-25 22:32N 59°53' E 030°14'0 0.0
2016-Nov-25 21:32N 59°53' E 030°14'0 0.0
2016-Nov-25 20:32N 59°53' E 030°14'0 0.0
2016-Nov-25 19:32N 59°53' E 030°14'0 0.0
2016-Nov-25 18:32N 59°53' E 030°14'0 0.1
2016-Nov-25 17:33N 59°53' E 030°14'0 0.5
2016-Nov-25 16:33N 59°53' E 030°13'0 0.0
2016-Nov-25 15:33N 59°53' E 030°13'0 0.0
2016-Nov-25 14:33N 59°53' E 030°13'0 0.0
2016-Nov-25 13:33N 59°53' E 030°13'0 0.3
2016-Nov-25 12:33N 59°53' E 030°13'0 0.0
2016-Nov-25 10:33N 59°53' E 030°13'0 0.0
2016-Nov-25 09:33N 59°53' E 030°13'0 0.0
2016-Nov-25 08:33N 59°53' E 030°13'0 0.0
2016-Nov-25 07:33N 59°53' E 030°13'0 0.0
2016-Nov-25 06:33N 59°53' E 030°13'0 0.0
2016-Nov-25 05:33N 59°53' E 030°13'0 0.0
2016-Nov-25 04:33N 59°53' E 030°13'0 0.0
2016-Nov-25 03:33N 59°53' E 030°13'0 0.0
2016-Nov-25 02:33N 59°53' E 030°13'0 0.0
2016-Nov-25 01:33N 59°53' E 030°13'0 0.0
2016-Nov-25 00:33N 59°53' E 030°13'0 0.3
2016-Nov-24 23:33N 59°53' E 030°13'0 0.0
2016-Nov-24 22:33N 59°53' E 030°13'1 1.1
2016-Nov-24 21:33N 59°53' E 030°11'0 0.0
2016-Nov-24 20:33N 59°53' E 030°11'0 0.0
2016-Nov-24 19:33N 59°53' E 030°11'0 0.0
2016-Nov-24 18:33N 59°53' E 030°11'1 1.0
2016-Nov-24 17:33N 59°53' E 030°13'0 0.4
2016-Nov-24 16:31N 59°53' E 030°14'0 0.0
2016-Nov-24 15:31N 59°53' E 030°14'0 0.0
2016-Nov-24 14:31N 59°53' E 030°14'0 0.0
2016-Nov-24 13:25N 59°53' E 030°14'0 0.0
2016-Nov-24 12:31N 59°53' E 030°14'0 0.0
2016-Nov-24 11:31N 59°53' E 030°14'0 0.0
2016-Nov-24 10:31N 59°53' E 030°14'0 0.0
2016-Nov-24 09:31N 59°53' E 030°14'1 1.0
2016-Nov-24 08:33N 59°52' E 030°13'0 0.0
2016-Nov-24 07:33N 59°52' E 030°13'0 0.0
2016-Nov-24 06:33N 59°52' E 030°13'0 0.0
2016-Nov-24 05:33N 59°52' E 030°13'0 0.0
2016-Nov-24 04:30N 59°52' E 030°13'0 0.0
2016-Nov-24 03:30N 59°52' E 030°13'0 0.0
2016-Nov-24 02:33N 59°52' E 030°13'0 0.0
2016-Nov-24 01:33N 59°52' E 030°13'2 1.6
2016-Nov-24 00:31N 59°54' E 030°13'0 0.0
2016-Nov-23 23:32N 59°54' E 030°13'0 0.0
2016-Nov-23 22:32N 59°54' E 030°13'0 0.0
2016-Nov-23 21:34N 59°54' E 030°13'1 1.3
2016-Nov-23 20:33N 59°53' E 030°11'0 0.0
2016-Nov-23 19:33N 59°53' E 030°11'0 0.0
2016-Nov-23 17:30N 59°53' E 030°11'0 0.0
2016-Nov-23 16:33N 59°53' E 030°11'0 0.0
2016-Nov-23 15:33N 59°53' E 030°11'0 0.0
2016-Nov-23 14:33N 59°53' E 030°11'0 0.0
2016-Nov-23 13:30N 59°53' E 030°11'1 1.2
2016-Nov-23 12:33N 59°53' E 030°13'0 0.0
2016-Nov-23 11:33N 59°53' E 030°13'0 0.0
2016-Nov-23 10:34N 59°53' E 030°13'0 0.0
2016-Nov-23 09:33N 59°53' E 030°13'0 0.0
2016-Nov-23 08:33N 59°53' E 030°13'0 0.0
2016-Nov-23 07:33N 59°53' E 030°13'0 0.0
2016-Nov-23 06:33N 59°53' E 030°13'  
Track history (hours):
 
Tides and Currents Weather Stations Pressure Air Temp Water Temp Dewpoint Dewpoint Depression Visibility Wind Speed Wind Dir Waves Ship Positions

Gazpromneft East

Last reported at 2016-Dec-03 04:33 UTC. Time now 2016-Dec-03 04:41 UTC.
Position N 59°53' E 030°14'.

Length 79 m; draft 3.9 m.

Type: Tanker. MMSI: 273335320.

Date/timePositionNaut miles runAvg speedWind from/ knotsBaromVisibWave heightAir tempDewpointWater temp
2016-Dec-03 04:33N 59°53' E 030°14'0 0.0
2016-Dec-03 03:33N 59°53' E 030°14'0 0.1
2016-Dec-03 02:33N 59°53' E 030°13'0 0.0
2016-Dec-03 01:34N 59°53' E 030°13'0 0.0
2016-Dec-03 00:33N 59°53' E 030°13'0 0.0
2016-Dec-02 23:34N 59°53' E 030°13'0 0.2
2016-Dec-02 22:34N 59°53' E 030°13'0 0.4
2016-Dec-02 21:34N 59°53' E 030°13'0 0.0
2016-Dec-02 20:34N 59°53' E 030°13'0 0.0
2016-Dec-02 19:34N 59°53' E 030°13'1 0.5
2016-Dec-02 18:32N 59°53' E 030°13'0 0.0
2016-Dec-02 17:32N 59°53' E 030°13'0 0.0
2016-Dec-02 16:32N 59°53' E 030°13'0 0.1
2016-Dec-02 15:32N 59°53' E 030°14'0 0.0
2016-Dec-02 14:32N 59°53' E 030°14'0 0.1
2016-Dec-02 13:32N 59°53' E 030°13'0 0.0
2016-Dec-02 12:28N 59°53' E 030°13'6 1.9
2016-Dec-02 09:12N 59°53' E 030°01'6 3.8
2016-Dec-02 07:32N 59°53' E 030°13'0 0.0
2016-Dec-02 06:32N 59°53' E 030°13'0 0.0
2016-Dec-02 05:32N 59°53' E 030°13'0 0.0
2016-Dec-02 04:32N 59°53' E 030°13'0 0.0
2016-Dec-02 03:32N 59°53' E 030°13'2 1.9
2016-Dec-02 02:33N 59°53' E 030°10'8 8.4
2016-Dec-02 01:33N 59°56' E 029°54'27 9.1
2016-Dec-01 22:33N 60°00' E 028°60'1211.9
2016-Dec-01 21:33N 59°54' E 028°39'1110.8
2016-Dec-01 20:33N 59°46' E 028°25'5 4.3
2016-Dec-01 19:23N 59°42' E 028°20'0 0.0
2016-Dec-01 18:26N 59°42' E 028°20'0 0.0
2016-Dec-01 17:11N 59°42' E 028°20'0 0.0
2016-Dec-01 16:26N 59°42' E 028°20'0 0.0
2016-Dec-01 15:29N 59°42' E 028°20'0 0.1
2016-Dec-01 14:29N 59°42' E 028°20'0 0.0
2016-Dec-01 13:29N 59°42' E 028°20'0 0.0
2016-Dec-01 12:32N 59°42' E 028°20'0 0.0
2016-Dec-01 11:32N 59°42' E 028°20'0 0.0
2016-Dec-01 10:32N 59°42' E 028°20'0 0.0
2016-Dec-01 09:32N 59°42' E 028°20'0 0.0
2016-Dec-01 08:20N 59°42' E 028°20'0 0.0
2016-Dec-01 07:32N 59°42' E 028°20'0 0.0
2016-Dec-01 06:32N 59°42' E 028°20'0 0.0
2016-Dec-01 05:23N 59°42' E 028°20'0 0.0
2016-Dec-01 04:20N 59°42' E 028°20'0 0.0
2016-Dec-01 03:26N 59°42' E 028°20'0 0.0
2016-Dec-01 02:26N 59°42' E 028°20'0 0.0
2016-Dec-01 01:29N 59°42' E 028°20'0 0.0
2016-Dec-01 00:29N 59°42' E 028°20'0 0.0
2016-Nov-30 23:29N 59°42' E 028°20'0 0.0
2016-Nov-30 22:32N 59°42' E 028°20'0 0.0
2016-Nov-30 21:32N 59°42' E 028°20'0 0.0
2016-Nov-30 20:32N 59°42' E 028°20'4 4.4
2016-Nov-30 19:33N 59°46' E 028°24'1010.1
2016-Nov-30 18:33N 59°54' E 028°35'2 1.8
2016-Nov-30 17:24N 59°54' E 028°39'0 0.0
2016-Nov-30 16:24N 59°54' E 028°39'0 0.0
2016-Nov-30 15:27N 59°54' E 028°39'0 0.0
2016-Nov-30 14:27N 59°54' E 028°39'0 0.0
2016-Nov-30 13:31N 59°54' E 028°39'0 0.0
2016-Nov-30 12:30N 59°54' E 028°39'7 6.9
2016-Nov-30 11:33N 59°58' E 028°51'2310.5
2016-Nov-30 09:19N 60°00' E 029°37'810.5
2016-Nov-30 08:33N 59°57' E 029°52'10 9.8
2016-Nov-30 07:33N 59°53' E 030°10'2 1.7
2016-Nov-30 06:33N 59°53' E 030°13'0 0.0
2016-Nov-30 05:33N 59°53' E 030°13'0 0.0
2016-Nov-30 04:33N 59°53' E 030°13'0 0.0
2016-Nov-30 03:33N 59°53' E 030°13'0 0.0
2016-Nov-30 02:33N 59°53' E 030°13'0 0.0
2016-Nov-30 01:33N 59°53' E 030°13'0 0.0
2016-Nov-30 00:33N 59°53' E 030°13'0 0.0
2016-Nov-29 23:33N 59°53' E 030°13'0 0.0
2016-Nov-29 22:33N 59°53' E 030°13'0 0.0
2016-Nov-29 21:33N 59°53' E 030°13'0 0.0
2016-Nov-29 20:33N 59°53' E 030°13'0 0.0
2016-Nov-29 19:33N 59°53' E 030°13'0 0.0
2016-Nov-29 18:33N 59°53' E 030°13'0 0.1
2016-Nov-29 17:33N 59°53' E 030°13'1 1.0
2016-Nov-29 16:33N 59°53' E 030°11'0 0.0
2016-Nov-29 15:33N 59°53' E 030°11'0 0.0
2016-Nov-29 14:33N 59°53' E 030°11'0 0.0
2016-Nov-29 13:33N 59°53' E 030°11'0 0.0
2016-Nov-29 12:30N 59°53' E 030°11'0 0.0
2016-Nov-29 11:33N 59°53' E 030°11'0 0.1
2016-Nov-29 10:33N 59°53' E 030°11'1 1.0
2016-Nov-29 09:31N 59°53' E 030°13'0 0.0
2016-Nov-29 08:31N 59°53' E 030°13'0 0.0
2016-Nov-29 07:31N 59°53' E 030°13'0 0.0
2016-Nov-29 06:31N 59°53' E 030°13'5 4.8
2016-Nov-29 05:33N 59°54' E 030°05'1010.1
2016-Nov-29 04:33N 59°59' E 029°46'1 0.7
2016-Nov-29 02:29N 59°59' E 029°44'0 0.0
2016-Nov-29 01:20N 59°59' E 029°44'0 0.0
2016-Nov-29 00:28N 59°59' E 029°44'0 0.0
2016-Nov-28 23:29N 59°59' E 029°44'0 0.0
2016-Nov-28 22:32N 59°59' E 029°44'0 0.0
2016-Nov-28 19:20N 59°59' E 029°44'0 0.0
2016-Nov-28 18:26N 59°59' E 029°44'0 0.0
2016-Nov-28 17:32N 59°59' E 029°44'2 0.2
2016-Nov-28 09:32N 59°57' E 029°44'6 6.5
2016-Nov-28 08:33N 59°56' E 029°56'8 7.9
2016-Nov-28 07:33N 59°53' E 030°11'1 1.2
2016-Nov-28 06:33N 59°53' E 030°13'0 0.0
2016-Nov-28 05:33N 59°53' E 030°13'0 0.0
2016-Nov-28 04:33N 59°53' E 030°13'0 0.0
2016-Nov-28 03:33N 59°53' E 030°13'0 0.0
2016-Nov-28 02:33N 59°53' E 030°13'0 0.0
2016-Nov-28 01:33N 59°53' E 030°13'0 0.0
2016-Nov-28 00:33N 59°53' E 030°13'0 0.0
2016-Nov-27 23:33N 59°53' E 030°13'1 0.9
2016-Nov-27 22:33N 59°52' E 030°12'0 0.0
2016-Nov-27 21:33N 59°52' E 030°12'0 0.0
2016-Nov-27 20:33N 59°52' E 030°12'0 0.0
2016-Nov-27 19:33N 59°52' E 030°12'0 0.0
2016-Nov-27 18:33N 59°52' E 030°12'0 0.0
2016-Nov-27 17:33N 59°52' E 030°12'0 0.0
2016-Nov-27 16:33N 59°52' E 030°12'0 0.0
2016-Nov-27 15:33N 59°52' E 030°12'8 7.7
2016-Nov-27 14:33N 59°56' E 029°58'6 0.9
2016-Nov-27 07:28N 59°56' E 029°46'0 0.0
2016-Nov-27 06:31N 59°56' E 029°46'3 0.4
2016-Nov-26 23:33N 59°56' E 029°41'3 3.1
2016-Nov-26 22:34N 59°59' E 029°44'10 9.9
2016-Nov-26 21:33N 59°55' E 030°02'5 4.6
2016-Nov-26 20:32N 59°53' E 030°11'0 0.0
2016-Nov-26 19:34N 59°53' E 030°11'0 0.0
2016-Nov-26 18:33N 59°53' E 030°11'0 0.0
2016-Nov-26 17:31N 59°53' E 030°11'0 0.0
2016-Nov-26 16:33N 59°53' E 030°11'0 0.0
2016-Nov-26 15:34N 59°53' E 030°11'1 1.2
2016-Nov-26 14:33N 59°53' E 030°13'0 0.2
2016-Nov-26 13:33N 59°53' E 030°13'0 0.0
2016-Nov-26 12:33N 59°53' E 030°13'0 0.0
2016-Nov-26 11:33N 59°53' E 030°13'0 0.0
2016-Nov-26 10:30N 59°53' E 030°13'0 0.0
2016-Nov-26 09:33N 59°53' E 030°13'0 0.0
2016-Nov-26 08:33N 59°53' E 030°13'0 0.0
2016-Nov-26 07:33N 59°53' E 030°13'0 0.0
2016-Nov-26 06:32N 59°53' E 030°13'0 0.0
2016-Nov-26 05:32N 59°53' E 030°13'0 0.0
2016-Nov-26 04:32N 59°53' E 030°13'0 0.0
2016-Nov-26 03:32N 59°53' E 030°13'0 0.0
2016-Nov-26 02:32N 59°53' E 030°13'0 0.0
2016-Nov-26 01:32N 59°53' E 030°13'0 0.5
2016-Nov-26 00:29N 59°53' E 030°14'0 0.1
2016-Nov-25 23:32N 59°53' E 030°14'0 0.0
2016-Nov-25 22:32N 59°53' E 030°14'0 0.0
2016-Nov-25 21:32N 59°53' E 030°14'0 0.0
2016-Nov-25 20:32N 59°53' E 030°14'0 0.0
2016-Nov-25 19:32N 59°53' E 030°14'0 0.0
2016-Nov-25 18:32N 59°53' E 030°14'0 0.1
2016-Nov-25 17:33N 59°53' E 030°14'0 0.5
2016-Nov-25 16:33N 59°53' E 030°13'0 0.0
2016-Nov-25 15:33N 59°53' E 030°13'0 0.0
2016-Nov-25 14:33N 59°53' E 030°13'0 0.0
2016-Nov-25 13:33N 59°53' E 030°13'0 0.3
2016-Nov-25 12:33N 59°53' E 030°13'0 0.0
2016-Nov-25 10:33N 59°53' E 030°13'0 0.0
2016-Nov-25 09:33N 59°53' E 030°13'0 0.0
2016-Nov-25 08:33N 59°53' E 030°13'0 0.0
2016-Nov-25 07:33N 59°53' E 030°13'0 0.0
2016-Nov-25 06:33N 59°53' E 030°13'0 0.0
2016-Nov-25 05:33N 59°53' E 030°13'0 0.0
2016-Nov-25 04:33N 59°53' E 030°13'0 0.0
2016-Nov-25 03:33N 59°53' E 030°13'0 0.0
2016-Nov-25 02:33N 59°53' E 030°13'0 0.0
2016-Nov-25 01:33N 59°53' E 030°13'0 0.0
2016-Nov-25 00:33N 59°53' E 030°13'0 0.3
2016-Nov-24 23:33N 59°53' E 030°13'0 0.0
2016-Nov-24 22:33N 59°53' E 030°13'1 1.1
2016-Nov-24 21:33N 59°53' E 030°11'0 0.0
2016-Nov-24 20:33N 59°53' E 030°11'0 0.0
2016-Nov-24 19:33N 59°53' E 030°11'0 0.0
2016-Nov-24 18:33N 59°53' E 030°11'1 1.0
2016-Nov-24 17:33N 59°53' E 030°13'0 0.4
2016-Nov-24 16:31N 59°53' E 030°14'0 0.0
2016-Nov-24 15:31N 59°53' E 030°14'0 0.0
2016-Nov-24 14:31N 59°53' E 030°14'0 0.0
2016-Nov-24 13:25N 59°53' E 030°14'0 0.0
2016-Nov-24 12:31N 59°53' E 030°14'0 0.0
2016-Nov-24 11:31N 59°53' E 030°14'0 0.0
2016-Nov-24 10:31N 59°53' E 030°14'0 0.0
2016-Nov-24 09:31N 59°53' E 030°14'1 1.0
2016-Nov-24 08:33N 59°52' E 030°13'0 0.0
2016-Nov-24 07:33N 59°52' E 030°13'0 0.0
2016-Nov-24 06:33N 59°52' E 030°13'0 0.0
2016-Nov-24 05:33N 59°52' E 030°13'0 0.0
2016-Nov-24 04:30N 59°52' E 030°13'0 0.0
2016-Nov-24 03:30N 59°52' E 030°13'0 0.0
2016-Nov-24 02:33N 59°52' E 030°13'0 0.0
2016-Nov-24 01:33N 59°52' E 030°13'2 1.6
2016-Nov-24 00:31N 59°54' E 030°13'0 0.0
2016-Nov-23 23:32N 59°54' E 030°13'0 0.0
2016-Nov-23 22:32N 59°54' E 030°13'0 0.0
2016-Nov-23 21:34N 59°54' E 030°13'1 1.3
2016-Nov-23 20:33N 59°53' E 030°11'0 0.0
2016-Nov-23 19:33N 59°53' E 030°11'0 0.0
2016-Nov-23 17:30N 59°53' E 030°11'0 0.0
2016-Nov-23 16:33N 59°53' E 030°11'0 0.0
2016-Nov-23 15:33N 59°53' E 030°11'0 0.0
2016-Nov-23 14:33N 59°53' E 030°11'0 0.0
2016-Nov-23 13:30N 59°53' E 030°11'1 1.2
2016-Nov-23 12:33N 59°53' E 030°13'0 0.0
2016-Nov-23 11:33N 59°53' E 030°13'0 0.0
2016-Nov-23 10:34N 59°53' E 030°13'0 0.0
2016-Nov-23 09:33N 59°53' E 030°13'0 0.0
2016-Nov-23 08:33N 59°53' E 030°13'0 0.0
2016-Nov-23 07:33N 59°53' E 030°13'0 0.0
2016-Nov-23 06:33N 59°53' E 030°13'  

Dump ship's entire track history